MOL Explorer — 3EKT8 — position and weather

sailwx.info

Track history (hours):
 
Tides and Currents Weather Stations Pressure Air Temp Water Temp Dewpoint Dewpoint Depression Visibility Wind Speed Wind Dir Waves Ship Positions

MOL Explorer

Last reported at 2017-Aug-18 00:12 UTC. Time now 2017-Aug-19 09:26 UTC.
Position N 25°03' E 119°54'.

Length 293 m; draft 11.9 m.

Type: Ship (hazmat cat A). MMSI: 372827000.

Date/timePositionNaut miles runAvg speedWind from/ knotsBaromVisibWave heightAir tempDewpointWater temp
2017-Aug-18 00:12N 25°03' E 119°54'721.4
2017-Aug-17 23:52N 24°58' E 119°49'1121.0
2017-Aug-17 23:22N 24°51' E 119°40'1221.2
2017-Aug-17 22:48N 24°43' E 119°30'2621.7
2017-Aug-17 21:34N 24°24' E 119°10'121.4
2017-Aug-17 21:30N 24°23' E 119°09'1821.2
2017-Aug-17 20:38N 24°12' E 118°52'322.2
2017-Aug-17 20:30N 24°10' E 118°50'1321.6
2017-Aug-17 19:54N 24°01' E 118°40'1221.5
2017-Aug-17 19:20N 23°53' E 118°31'1121.0
2017-Aug-17 18:49N 23°46' E 118°21'25017.9
2017-Aug-17 04:52N 22°19' E 114°07'1 2.2
2017-Aug-17 04:26N 22°20' E 114°08'  
2017-Aug-10 13:16N 01°15' E 104°04'517.5
2017-Aug-10 12:58N 01°14' E 103°59'816.1
2017-Aug-10 12:30N 01°12' E 103°51'4 7.5
2017-Aug-10 12:00N 01°13' E 103°48'3 5.8
2017-Aug-10 11:30N 01°15' E 103°47'0 0.1
2017-Aug-10 10:57N 01°15' E 103°47'0 0.0
2017-Aug-10 10:27N 01°15' E 103°47'0 0.0
2017-Aug-10 09:51N 01°15' E 103°47'0 0.0
2017-Aug-10 09:27N 01°15' E 103°47'0 0.0
2017-Aug-10 08:57N 01°15' E 103°47'0 0.0
2017-Aug-10 08:30N 01°15' E 103°47'0 0.0
2017-Aug-10 07:57N 01°15' E 103°47'0 0.0
2017-Aug-10 07:30N 01°15' E 103°47'0 0.0
2017-Aug-10 07:00N 01°15' E 103°47'0 0.0
2017-Aug-10 06:30N 01°15' E 103°47'0 0.0
2017-Aug-10 05:57N 01°15' E 103°47'0 0.1
2017-Aug-10 05:30N 01°15' E 103°47'0 0.1
2017-Aug-10 04:51N 01°15' E 103°47'0 0.0
2017-Aug-10 04:30N 01°15' E 103°47'0 0.0
2017-Aug-10 03:57N 01°15' E 103°47'0 0.0
2017-Aug-10 03:27N 01°15' E 103°47'0 0.0
2017-Aug-10 02:48N 01°15' E 103°47'0 0.0
2017-Aug-10 02:21N 01°15' E 103°47'0 0.1
2017-Aug-10 01:57N 01°15' E 103°47'0 0.1
2017-Aug-10 01:27N 01°15' E 103°47'0 0.0
2017-Aug-10 00:57N 01°15' E 103°47'0 0.0
2017-Aug-10 00:27N 01°15' E 103°47'0 0.0
2017-Aug-09 23:54N 01°15' E 103°47'0 0.0
2017-Aug-09 23:27N 01°15' E 103°47'0 0.0
2017-Aug-09 22:57N 01°15' E 103°47'0 0.0
2017-Aug-09 22:30N 01°15' E 103°47'0 0.0
2017-Aug-09 21:57N 01°15' E 103°47'0 0.0
2017-Aug-09 21:27N 01°15' E 103°47'0 0.0
2017-Aug-09 20:58N 01°15' E 103°47'0 0.3
2017-Aug-09 20:30N 01°15' E 103°47'0 0.1
2017-Aug-09 20:00N 01°15' E 103°47'1 1.6
2017-Aug-09 19:30N 01°15' E 103°46'3 5.0
2017-Aug-09 19:00N 01°15' E 103°44'4 7.9
2017-Aug-09 18:30N 01°13' E 103°40'4 8.5
2017-Aug-09 18:00N 01°12' E 103°36'3 6.7
2017-Aug-09 17:30N 01°11' E 103°33'3 6.1
2017-Aug-09 17:00N 01°10' E 103°30'4 7.6
2017-Aug-09 16:30N 01°11' E 103°26'713.2
2017-Aug-09 15:57N 01°15' E 103°21'  
Track history (hours):
 
Tides and Currents Weather Stations Pressure Air Temp Water Temp Dewpoint Dewpoint Depression Visibility Wind Speed Wind Dir Waves Ship Positions

MOL Explorer

Last reported at 2017-Aug-18 00:12 UTC. Time now 2017-Aug-19 09:26 UTC.
Position N 25°03' E 119°54'.

Length 293 m; draft 11.9 m.

Type: Ship (hazmat cat A). MMSI: 372827000.

Date/timePositionNaut miles runAvg speedWind from/ knotsBaromVisibWave heightAir tempDewpointWater temp
2017-Aug-18 00:12N 25°03' E 119°54'721.4
2017-Aug-17 23:52N 24°58' E 119°49'1121.0
2017-Aug-17 23:22N 24°51' E 119°40'1221.2
2017-Aug-17 22:48N 24°43' E 119°30'2621.7
2017-Aug-17 21:34N 24°24' E 119°10'121.4
2017-Aug-17 21:30N 24°23' E 119°09'1821.2
2017-Aug-17 20:38N 24°12' E 118°52'322.2
2017-Aug-17 20:30N 24°10' E 118°50'1321.6
2017-Aug-17 19:54N 24°01' E 118°40'1221.5
2017-Aug-17 19:20N 23°53' E 118°31'1121.0
2017-Aug-17 18:49N 23°46' E 118°21'25017.9
2017-Aug-17 04:52N 22°19' E 114°07'1 2.2
2017-Aug-17 04:26N 22°20' E 114°08'  
2017-Aug-10 13:16N 01°15' E 104°04'517.5
2017-Aug-10 12:58N 01°14' E 103°59'816.1
2017-Aug-10 12:30N 01°12' E 103°51'4 7.5
2017-Aug-10 12:00N 01°13' E 103°48'3 5.8
2017-Aug-10 11:30N 01°15' E 103°47'0 0.1
2017-Aug-10 10:57N 01°15' E 103°47'0 0.0
2017-Aug-10 10:27N 01°15' E 103°47'0 0.0
2017-Aug-10 09:51N 01°15' E 103°47'0 0.0
2017-Aug-10 09:27N 01°15' E 103°47'0 0.0
2017-Aug-10 08:57N 01°15' E 103°47'0 0.0
2017-Aug-10 08:30N 01°15' E 103°47'0 0.0
2017-Aug-10 07:57N 01°15' E 103°47'0 0.0
2017-Aug-10 07:30N 01°15' E 103°47'0 0.0
2017-Aug-10 07:00N 01°15' E 103°47'0 0.0
2017-Aug-10 06:30N 01°15' E 103°47'0 0.0
2017-Aug-10 05:57N 01°15' E 103°47'0 0.1
2017-Aug-10 05:30N 01°15' E 103°47'0 0.1
2017-Aug-10 04:51N 01°15' E 103°47'0 0.0
2017-Aug-10 04:30N 01°15' E 103°47'0 0.0
2017-Aug-10 03:57N 01°15' E 103°47'0 0.0
2017-Aug-10 03:27N 01°15' E 103°47'0 0.0
2017-Aug-10 02:48N 01°15' E 103°47'0 0.0
2017-Aug-10 02:21N 01°15' E 103°47'0 0.1
2017-Aug-10 01:57N 01°15' E 103°47'0 0.1
2017-Aug-10 01:27N 01°15' E 103°47'0 0.0
2017-Aug-10 00:57N 01°15' E 103°47'0 0.0
2017-Aug-10 00:27N 01°15' E 103°47'0 0.0
2017-Aug-09 23:54N 01°15' E 103°47'0 0.0
2017-Aug-09 23:27N 01°15' E 103°47'0 0.0
2017-Aug-09 22:57N 01°15' E 103°47'0 0.0
2017-Aug-09 22:30N 01°15' E 103°47'0 0.0
2017-Aug-09 21:57N 01°15' E 103°47'0 0.0
2017-Aug-09 21:27N 01°15' E 103°47'0 0.0
2017-Aug-09 20:58N 01°15' E 103°47'0 0.3
2017-Aug-09 20:30N 01°15' E 103°47'0 0.1
2017-Aug-09 20:00N 01°15' E 103°47'1 1.6
2017-Aug-09 19:30N 01°15' E 103°46'3 5.0
2017-Aug-09 19:00N 01°15' E 103°44'4 7.9
2017-Aug-09 18:30N 01°13' E 103°40'4 8.5
2017-Aug-09 18:00N 01°12' E 103°36'3 6.7
2017-Aug-09 17:30N 01°11' E 103°33'3 6.1
2017-Aug-09 17:00N 01°10' E 103°30'4 7.6
2017-Aug-09 16:30N 01°11' E 103°26'713.2
2017-Aug-09 15:57N 01°15' E 103°21'  

Dump ship's entire track history